createdAt,value
2018-07-12T00:00:01.991Z,15.78
2018-07-12T00:03:04.276Z,15.78
2018-07-12T00:06:06.630Z,15.77
2018-07-12T00:09:09.012Z,15.71
2018-07-12T00:12:11.400Z,15.70
2018-07-12T00:15:13.719Z,15.67
2018-07-12T00:18:16.045Z,15.67
2018-07-12T00:21:18.401Z,15.68
2018-07-12T00:24:20.668Z,15.66
2018-07-12T00:27:22.971Z,15.72
2018-07-12T00:30:25.315Z,15.70
2018-07-12T00:33:27.800Z,15.74
2018-07-12T00:36:30.071Z,15.75
2018-07-12T00:39:32.385Z,15.77
2018-07-12T00:42:34.663Z,15.75
2018-07-12T00:45:36.978Z,15.80
2018-07-12T00:48:39.263Z,15.77
2018-07-12T00:51:41.593Z,15.80
2018-07-12T00:54:44.174Z,15.83
2018-07-12T00:57:46.493Z,15.89
2018-07-12T01:00:48.768Z,15.85
2018-07-12T01:03:51.076Z,15.83
2018-07-12T01:06:53.422Z,15.83
2018-07-12T01:09:55.797Z,15.83
2018-07-12T01:12:58.073Z,15.84
2018-07-12T01:16:00.511Z,15.84
2018-07-12T01:19:02.869Z,15.85
2018-07-12T01:22:05.332Z,15.88
2018-07-12T01:25:07.687Z,15.85
2018-07-12T01:28:09.978Z,15.86
2018-07-12T01:31:12.386Z,15.91
2018-07-12T01:34:14.804Z,15.90
2018-07-12T01:37:17.147Z,15.91
2018-07-12T01:40:19.567Z,15.88
2018-07-12T01:43:22.042Z,15.86
2018-07-12T01:46:24.317Z,15.87
2018-07-12T01:49:26.682Z,15.90
2018-07-12T01:52:28.999Z,15.87
2018-07-12T01:55:31.388Z,15.83
2018-07-12T01:58:33.829Z,15.90
2018-07-12T02:01:36.202Z,15.89
2018-07-12T02:04:38.593Z,15.91
2018-07-12T02:07:41.003Z,15.82
2018-07-12T02:10:43.403Z,15.85
2018-07-12T02:13:45.732Z,15.82
2018-07-12T02:16:48.068Z,15.77
2018-07-12T02:19:50.489Z,15.80
2018-07-12T02:22:53.144Z,15.80
2018-07-12T02:25:55.542Z,15.81
2018-07-12T02:28:57.851Z,15.72
2018-07-12T02:32:00.148Z,15.72
2018-07-12T02:35:02.822Z,15.68
2018-07-12T02:38:05.105Z,15.68
2018-07-12T02:41:07.360Z,15.72
2018-07-12T02:44:09.764Z,15.72
2018-07-12T02:47:12.079Z,15.69
2018-07-12T02:50:14.394Z,15.60
2018-07-12T02:53:16.758Z,15.61
2018-07-12T02:56:19.080Z,15.56
2018-07-12T02:59:21.508Z,15.55
2018-07-12T03:02:23.915Z,15.52
2018-07-12T03:05:26.200Z,15.49
2018-07-12T03:08:28.618Z,15.53
2018-07-12T03:11:30.942Z,15.47
2018-07-12T03:14:33.399Z,15.42
2018-07-12T03:17:35.869Z,15.45
2018-07-12T03:20:38.214Z,15.43
2018-07-12T03:23:40.641Z,15.38
2018-07-12T03:26:42.915Z,15.31
2018-07-12T03:29:45.274Z,15.29
2018-07-12T03:32:47.629Z,15.25
2018-07-12T03:35:50.118Z,15.24
2018-07-12T03:38:52.478Z,15.22
2018-07-12T03:41:54.832Z,15.16
2018-07-12T03:44:57.215Z,15.21
2018-07-12T03:47:59.614Z,15.24
2018-07-12T03:51:02.006Z,15.28
2018-07-12T03:54:04.496Z,15.41
2018-07-12T03:57:06.914Z,15.49
2018-07-12T04:00:09.349Z,15.56
2018-07-12T04:03:11.645Z,15.40
2018-07-12T04:06:14.005Z,15.44
2018-07-12T04:09:16.445Z,15.41
2018-07-12T04:12:18.753Z,15.40
2018-07-12T04:15:21.180Z,15.46
2018-07-12T04:18:23.438Z,15.53
2018-07-12T04:21:25.853Z,15.55
2018-07-12T04:24:28.200Z,15.56
2018-07-12T04:27:30.719Z,15.60
2018-07-12T04:30:33.066Z,15.69
2018-07-12T04:33:35.401Z,15.71
2018-07-12T04:36:37.931Z,15.75
2018-07-12T04:39:40.290Z,15.83
2018-07-12T04:42:42.671Z,15.88
2018-07-12T04:45:44.965Z,15.95
2018-07-12T04:48:47.271Z,16.10
2018-07-12T04:51:50.692Z,16.29
2018-07-12T04:54:52.984Z,16.18
2018-07-12T04:57:55.367Z,16.21
2018-07-12T05:00:57.776Z,16.45
2018-07-12T05:04:00.200Z,16.44
2018-07-12T05:07:02.599Z,16.34
2018-07-12T05:10:04.911Z,16.66
2018-07-12T05:13:07.309Z,16.98
2018-07-12T05:16:09.734Z,17.15
2018-07-12T05:19:12.059Z,17.43
2018-07-12T05:22:14.428Z,17.37
2018-07-12T05:25:16.841Z,16.67
2018-07-12T05:28:19.220Z,16.49
2018-07-12T05:31:21.556Z,16.47
2018-07-12T05:34:23.939Z,16.25
2018-07-12T05:37:27.584Z,16.10
2018-07-12T05:40:31.276Z,15.97
2018-07-12T05:43:34.974Z,15.91
2018-07-12T05:46:38.652Z,16.03
2018-07-12T05:49:42.195Z,16.12
2018-07-12T05:52:45.776Z,16.16
2018-07-12T05:55:49.380Z,16.34
2018-07-12T05:58:53.027Z,16.70
2018-07-12T06:02:07.873Z,16.96
2018-07-12T06:05:11.520Z,17.90
2018-07-12T06:08:15.110Z,19.03
2018-07-12T06:11:18.835Z,19.97
2018-07-12T06:14:22.468Z,20.27
2018-07-12T06:17:26.267Z,21.15
2018-07-12T06:20:29.890Z,21.74
2018-07-12T06:23:33.588Z,22.09
2018-07-12T06:26:37.276Z,22.48
2018-07-12T06:29:40.956Z,22.78
2018-07-12T06:32:44.697Z,23.22
2018-07-12T06:35:48.345Z,22.69
2018-07-12T06:38:51.962Z,23.82
2018-07-12T06:41:55.736Z,24.51
2018-07-12T06:44:59.496Z,24.83
2018-07-12T06:48:03.110Z,24.61
2018-07-12T06:51:06.851Z,25.06
2018-07-12T06:54:10.511Z,23.67
2018-07-12T06:57:14.222Z,22.80
2018-07-12T07:00:17.881Z,22.87
2018-07-12T07:03:21.487Z,21.95
2018-07-12T07:06:25.229Z,20.87
2018-07-12T07:09:28.866Z,20.43
2018-07-12T07:12:32.522Z,20.26
2018-07-12T07:15:36.126Z,19.73
2018-07-12T07:18:39.812Z,19.46
2018-07-12T07:21:43.352Z,19.88
2018-07-12T07:24:47.021Z,20.24
2018-07-12T07:27:50.603Z,20.71
2018-07-12T07:30:54.331Z,20.20
2018-07-12T07:33:57.930Z,20.17
2018-07-12T07:37:01.577Z,20.26
2018-07-12T07:40:05.306Z,20.41
2018-07-12T07:43:09.096Z,20.57
2018-07-12T07:46:12.693Z,20.58
2018-07-12T07:49:16.358Z,20.63
2018-07-12T07:52:20.052Z,21.10
2018-07-12T07:55:23.670Z,20.84
2018-07-12T07:58:27.213Z,20.96
2018-07-12T08:01:30.914Z,21.49
2018-07-12T08:04:34.513Z,21.04
2018-07-12T08:07:38.240Z,21.18
2018-07-12T08:10:44.948Z,21.10
2018-07-12T08:13:49.426Z,21.20
2018-07-12T08:16:53.159Z,21.34
2018-07-12T08:19:56.904Z,21.80
2018-07-12T08:23:00.725Z,21.99
2018-07-12T08:26:04.459Z,22.31
2018-07-12T08:29:08.073Z,22.05
2018-07-12T08:32:11.823Z,22.11
2018-07-12T08:35:15.419Z,21.87
2018-07-12T08:38:19.056Z,21.83
2018-07-12T08:41:22.697Z,21.93
2018-07-12T08:44:26.367Z,21.66
2018-07-12T08:47:30.019Z,22.35
2018-07-12T08:50:33.817Z,22.01
2018-07-12T08:53:37.501Z,22.02
2018-07-12T08:56:41.712Z,21.97
2018-07-12T08:59:45.497Z,22.20
2018-07-12T09:02:49.314Z,22.25
2018-07-12T09:05:52.898Z,22.56
2018-07-12T09:08:56.693Z,22.47
2018-07-12T09:12:00.308Z,22.17
2018-07-12T09:15:04.092Z,21.95
2018-07-12T09:18:07.694Z,21.88
2018-07-12T09:21:11.432Z,22.26
2018-07-12T09:24:15.131Z,22.31
2018-07-12T09:27:18.773Z,22.76
2018-07-12T09:30:22.417Z,23.10
2018-07-12T09:33:28.977Z,23.18
2018-07-12T09:36:32.789Z,23.71
2018-07-12T09:39:36.555Z,23.62
2018-07-12T09:42:40.204Z,23.98
2018-07-12T09:45:43.820Z,23.47
2018-07-12T09:48:48.884Z,23.57
2018-07-12T09:51:52.528Z,23.41
2018-07-12T09:54:56.159Z,23.58
2018-07-12T09:58:11.103Z,24.18
2018-07-12T10:01:19.928Z,23.80
2018-07-12T10:04:26.595Z,23.44
2018-07-12T10:07:31.622Z,23.10
2018-07-12T10:10:39.490Z,23.58
2018-07-12T10:13:51.274Z,23.72
2018-07-12T10:17:00.053Z,23.75
2018-07-12T10:20:04.995Z,23.61
2018-07-12T10:23:08.567Z,23.52
2018-07-12T10:26:12.273Z,23.98
2018-07-12T10:29:15.954Z,23.69
2018-07-12T10:32:19.565Z,23.81
2018-07-12T10:35:23.325Z,24.28
2018-07-12T10:38:26.975Z,24.47
2018-07-12T10:41:30.633Z,24.88
2018-07-12T10:44:34.290Z,24.47
2018-07-12T10:47:37.966Z,24.30
2018-07-12T10:50:41.678Z,23.76
2018-07-12T10:53:45.520Z,23.70
2018-07-12T10:56:49.144Z,23.51
2018-07-12T10:59:52.970Z,23.35
2018-07-12T11:02:56.695Z,22.86
2018-07-12T11:06:00.323Z,22.93
2018-07-12T11:09:04.831Z,22.80
2018-07-12T11:12:08.522Z,23.03
2018-07-12T11:15:12.320Z,23.60
2018-07-12T11:18:15.910Z,24.06
2018-07-12T11:21:19.577Z,24.66
2018-07-12T11:24:23.406Z,24.48
2018-07-12T11:27:27.818Z,24.54
2018-07-12T11:30:31.515Z,24.13
2018-07-12T11:33:38.157Z,23.75
2018-07-12T11:36:41.740Z,23.44
2018-07-12T11:39:45.455Z,23.47
2018-07-12T11:42:49.175Z,23.22
2018-07-12T11:45:52.878Z,23.29
2018-07-12T11:48:56.521Z,23.20
2018-07-12T11:52:00.220Z,23.07
2018-07-12T11:55:04.158Z,23.42
2018-07-12T11:58:07.812Z,24.05
2018-07-12T12:01:11.449Z,24.65
2018-07-12T12:04:15.082Z,25.10
2018-07-12T12:07:18.751Z,25.33
2018-07-12T12:10:22.440Z,25.77
2018-07-12T12:13:26.258Z,25.47
2018-07-12T12:16:30.179Z,25.31
2018-07-12T12:19:33.797Z,25.35
2018-07-12T12:22:37.435Z,25.77
2018-07-12T12:25:41.041Z,25.89
2018-07-12T12:28:44.729Z,25.57
2018-07-12T12:31:48.459Z,25.65
2018-07-12T12:34:52.162Z,25.90
2018-07-12T12:37:55.894Z,25.89
2018-07-12T12:40:59.606Z,25.82
2018-07-12T12:44:03.235Z,26.20
2018-07-12T12:47:06.897Z,25.99
2018-07-12T12:50:10.647Z,25.40
2018-07-12T12:53:14.319Z,25.39
2018-07-12T12:56:18.140Z,24.97
2018-07-12T12:59:21.820Z,24.58
2018-07-12T13:02:25.479Z,24.15
2018-07-12T13:05:29.099Z,24.16
2018-07-12T13:08:32.801Z,23.75
2018-07-12T13:11:36.867Z,23.74
2018-07-12T13:14:40.774Z,24.43
2018-07-12T13:17:44.474Z,24.82
2018-07-12T13:20:48.121Z,25.03
2018-07-12T13:23:51.927Z,24.75
2018-07-12T13:26:55.616Z,24.78
2018-07-12T13:29:59.427Z,24.68
2018-07-12T13:33:03.232Z,24.60
2018-07-12T13:36:06.945Z,24.45
2018-07-12T13:39:11.054Z,25.13
2018-07-12T13:42:14.787Z,25.24
2018-07-12T13:45:18.560Z,25.58
2018-07-12T13:48:22.237Z,25.58
2018-07-12T13:51:25.985Z,24.73
2018-07-12T13:54:29.567Z,24.36
2018-07-12T13:57:33.400Z,24.21
2018-07-12T14:00:37.220Z,23.83
2018-07-12T14:03:40.940Z,23.92
2018-07-12T14:06:44.610Z,23.74
2018-07-12T14:09:48.270Z,23.61
2018-07-12T14:12:51.956Z,23.46
2018-07-12T14:15:55.767Z,23.40
2018-07-12T14:18:59.600Z,23.36
2018-07-12T14:22:03.254Z,23.12
2018-07-12T14:25:07.083Z,22.86
2018-07-12T14:28:10.821Z,22.65
2018-07-12T14:31:14.525Z,22.68
2018-07-12T14:34:18.342Z,22.57
2018-07-12T14:37:22.057Z,22.57
2018-07-12T14:40:25.741Z,22.56
2018-07-12T14:43:29.632Z,22.63
2018-07-12T14:46:33.382Z,22.50
2018-07-12T14:49:37.061Z,22.47
2018-07-12T14:52:40.675Z,22.25
2018-07-12T14:55:44.402Z,22.25
2018-07-12T14:58:48.121Z,22.09
2018-07-12T15:01:51.832Z,22.13
2018-07-12T15:04:55.476Z,21.97
2018-07-12T15:07:59.180Z,21.80
2018-07-12T15:11:02.791Z,21.75
2018-07-12T15:14:06.876Z,21.92
2018-07-12T15:17:10.496Z,21.84
2018-07-12T15:20:14.117Z,21.84
2018-07-12T15:23:18.041Z,21.83
2018-07-12T15:26:21.770Z,21.82
2018-07-12T15:29:25.538Z,21.95
2018-07-12T15:32:29.151Z,21.93
2018-07-12T15:35:32.877Z,21.97
2018-07-12T15:38:36.575Z,21.95
2018-07-12T15:41:41.082Z,21.95
2018-07-12T15:44:44.812Z,21.95
2018-07-12T15:47:48.373Z,21.94
2018-07-12T15:50:52.153Z,21.99
2018-07-12T15:53:55.817Z,22.38
2018-07-12T15:56:59.627Z,22.08
2018-07-12T16:00:03.472Z,22.09
2018-07-12T16:03:07.110Z,22.49
2018-07-12T16:06:10.912Z,22.60
2018-07-12T16:09:14.563Z,22.68
2018-07-12T16:12:21.257Z,22.72
2018-07-12T16:15:24.938Z,22.60
2018-07-12T16:18:28.558Z,22.63
2018-07-12T16:21:32.426Z,22.40
2018-07-12T16:24:36.287Z,22.36
2018-07-12T16:27:40.028Z,22.25
2018-07-12T16:30:43.622Z,22.06
2018-07-12T16:33:47.312Z,22.13
2018-07-12T16:36:51.095Z,22.02
2018-07-12T16:39:54.964Z,21.79
2018-07-12T16:42:58.857Z,21.83
2018-07-12T16:46:02.621Z,21.83
2018-07-12T16:49:06.308Z,21.82
2018-07-12T16:52:09.927Z,21.93
2018-07-12T16:55:13.928Z,21.96
2018-07-12T16:58:17.566Z,21.81
2018-07-12T17:01:21.258Z,21.96
2018-07-12T17:04:24.984Z,21.93
2018-07-12T17:07:28.665Z,21.96
2018-07-12T17:10:32.461Z,22.08
2018-07-12T17:13:36.110Z,21.93
2018-07-12T17:16:39.783Z,21.84
2018-07-12T17:19:43.512Z,21.88
2018-07-12T17:22:47.283Z,21.90
2018-07-12T17:25:51.065Z,22.13
2018-07-12T17:28:54.704Z,23.77
2018-07-12T17:31:58.427Z,25.53
2018-07-12T17:35:02.257Z,25.54
2018-07-12T17:38:06.233Z,24.77
2018-07-12T17:41:10.057Z,24.20
2018-07-12T17:44:14.801Z,23.59
2018-07-12T17:47:18.619Z,23.00
2018-07-12T17:50:22.262Z,22.67
2018-07-12T17:53:25.911Z,22.49
2018-07-12T17:56:29.634Z,22.08
2018-07-12T17:59:33.409Z,21.91
2018-07-12T18:02:37.057Z,21.74
2018-07-12T18:05:40.861Z,21.64
2018-07-12T18:08:44.604Z,21.48
2018-07-12T18:11:48.297Z,21.55
2018-07-12T18:14:51.928Z,21.40
2018-07-12T18:17:55.750Z,21.40
2018-07-12T18:20:59.465Z,21.52
2018-07-12T18:24:03.457Z,21.69
2018-07-12T18:27:07.111Z,21.74
2018-07-12T18:30:10.813Z,21.83
2018-07-12T18:33:14.760Z,21.94
2018-07-12T18:36:18.385Z,22.04
2018-07-12T18:39:22.158Z,22.61
2018-07-12T18:42:25.895Z,22.63
2018-07-12T18:45:29.549Z,22.50
2018-07-12T18:48:33.220Z,22.13
2018-07-12T18:51:36.916Z,21.93
2018-07-12T18:54:40.853Z,21.77
2018-07-12T18:57:44.567Z,21.70
2018-07-12T19:00:48.220Z,21.63
2018-07-12T19:03:51.888Z,21.53
2018-07-12T19:06:55.584Z,21.38
2018-07-12T19:09:59.243Z,21.18
2018-07-12T19:13:03.007Z,21.05
2018-07-12T19:16:06.873Z,21.06
2018-07-12T19:19:10.598Z,20.90
2018-07-12T19:22:14.286Z,20.80
2018-07-12T19:25:18.085Z,20.84
2018-07-12T19:28:22.091Z,20.81
2018-07-12T19:31:25.733Z,20.73
2018-07-12T19:34:29.436Z,20.68
2018-07-12T19:37:33.190Z,20.65
2018-07-12T19:40:36.856Z,20.51
2018-07-12T19:43:40.538Z,20.45
2018-07-12T19:46:44.335Z,20.48
2018-07-12T19:49:47.836Z,20.41
2018-07-12T19:52:51.603Z,20.32
2018-07-12T19:55:55.338Z,20.32
2018-07-12T19:58:59.007Z,20.32
2018-07-12T20:02:02.743Z,20.26
2018-07-12T20:05:06.366Z,20.18
2018-07-12T20:08:10.173Z,20.10
2018-07-12T20:11:13.880Z,20.10
2018-07-12T20:14:17.534Z,20.11
2018-07-12T20:17:21.252Z,20.14
2018-07-12T20:20:24.980Z,20.24
2018-07-12T20:23:28.828Z,20.26
2018-07-12T20:26:32.685Z,20.30
2018-07-12T20:29:36.279Z,20.35
2018-07-12T20:32:40.041Z,20.34
2018-07-12T20:35:43.775Z,20.37
2018-07-12T20:38:47.593Z,20.37
2018-07-12T20:41:51.750Z,20.29
2018-07-12T20:44:55.545Z,20.25
2018-07-12T20:47:59.309Z,20.19
2018-07-12T20:51:02.974Z,20.15
2018-07-12T20:54:06.760Z,20.16
2018-07-12T20:57:10.552Z,20.12
2018-07-12T21:00:14.281Z,20.07
2018-07-12T21:03:17.945Z,20.03
2018-07-12T21:06:21.696Z,19.97
2018-07-12T21:09:25.519Z,19.89
2018-07-12T21:12:29.293Z,19.87
2018-07-12T21:15:33.136Z,19.82
2018-07-12T21:18:36.720Z,19.73
2018-07-12T21:21:40.439Z,19.68
2018-07-12T21:24:44.184Z,19.57
2018-07-12T21:27:47.893Z,19.53
2018-07-12T21:30:51.564Z,19.50
2018-07-12T21:33:55.174Z,19.38
2018-07-12T21:36:58.786Z,19.30
2018-07-12T21:40:02.455Z,19.28
2018-07-12T21:43:06.331Z,19.22
2018-07-12T21:46:10.268Z,19.13
2018-07-12T21:49:14.040Z,19.00
2018-07-12T21:52:17.597Z,18.95
2018-07-12T21:55:21.345Z,18.93
2018-07-12T21:58:25.001Z,18.83
2018-07-12T22:01:28.720Z,18.80
2018-07-12T22:04:32.394Z,18.68
2018-07-12T22:08:26.971Z,18.50
2018-07-12T22:11:30.676Z,18.38
2018-07-12T22:14:34.263Z,18.34
2018-07-12T22:17:37.880Z,18.09
2018-07-12T22:20:41.551Z,18.02
2018-07-12T22:23:45.300Z,17.99
2018-07-12T22:26:48.981Z,17.83
2018-07-12T22:29:52.683Z,17.73
2018-07-12T22:32:56.436Z,17.63
2018-07-12T22:36:00.028Z,17.54
2018-07-12T22:39:03.871Z,17.38
2018-07-12T22:42:07.594Z,17.30
2018-07-12T22:45:11.127Z,17.18
2018-07-12T22:48:14.848Z,17.11
2018-07-12T22:51:18.390Z,16.98
2018-07-12T22:54:22.066Z,16.90
2018-07-12T22:57:25.620Z,16.89
2018-07-12T23:00:29.250Z,16.78
2018-07-12T23:03:32.972Z,16.63
2018-07-12T23:06:36.612Z,16.61
2018-07-12T23:09:40.192Z,16.60
2018-07-12T23:12:43.851Z,16.45
2018-07-12T23:15:47.589Z,16.39
2018-07-12T23:18:51.215Z,16.27
2018-07-12T23:21:54.965Z,16.24
2018-07-12T23:24:58.741Z,16.15
2018-07-12T23:28:02.321Z,16.02
2018-07-12T23:31:05.860Z,15.99
2018-07-12T23:34:09.630Z,15.91
2018-07-12T23:37:13.251Z,15.88
2018-07-12T23:40:16.820Z,15.77
2018-07-12T23:43:20.495Z,15.74
2018-07-12T23:46:24.050Z,15.68
2018-07-12T23:49:27.607Z,15.60
2018-07-12T23:52:31.342Z,15.53
2018-07-12T23:55:35.182Z,15.53
2018-07-12T23:58:38.732Z,15.53
